sensor_id;sensor_type;location;lat;lon;timestamp;temperature;humidity
9772;DHT22;4925;52.588;13.370;2024-01-15T00:00:10;2.10;99.90
9772;DHT22;4925;52.588;13.370;2024-01-15T00:02:35;2.10;99.90
9772;DHT22;4925;52.588;13.370;2024-01-15T00:05:04;2.00;99.90
9772;DHT22;4925;52.588;13.370;2024-01-15T00:07:31;2.00;99.90
9772;DHT22;4925;52.588;13.370;2024-01-15T00:09:57;2.00;99.90
9772;DHT22;4925;52.588;13.370;2024-01-15T00:12:25;2.00;99.90
9772;DHT22;4925;52.588;13.370;2024-01-15T00:14:51;2.00;99.90
9772;DHT22;4925;52.588;13.370;2024-01-15T00:17:17;2.00;99.90
9772;DHT22;4925;52.588;13.370;2024-01-15T00:19:43;1.90;99.90
9772;DHT22;4925;52.588;13.370;2024-01-15T00:22:09;2.10;99.90
9772;DHT22;4925;52.588;13.370;2024-01-15T00:24:35;2.10;99.90
9772;DHT22;4925;52.588;13.370;2024-01-15T00:27:00;2.00;99.90
9772;DHT22;4925;52.588;13.370;2024-01-15T00:29:27;2.10;99.90
9772;DHT22;4925;52.588;13.370;2024-01-15T00:31:56;2.00;99.90
9772;DHT22;4925;52.588;13.370;2024-01-15T00:34:22;2.00;99.90
9772;DHT22;4925;52.588;13.370;2024-01-15T00:36:47;2.10;99.90
9772;DHT22;4925;52.588;13.370;2024-01-15T00:39:14;2.00;99.90
9772;DHT22;4925;52.588;13.370;2024-01-15T00:41:40;2.10;99.90
9772;DHT22;4925;52.588;13.370;2024-01-15T00:44:06;2.10;99.90
9772;DHT22;4925;52.588;13.370;2024-01-15T00:46:32;2.10;99.90
9772;DHT22;4925;52.588;13.370;2024-01-15T00:48:58;2.10;99.90
9772;DHT22;4925;52.588;13.370;2024-01-15T00:51:23;2.10;99.90
9772;DHT22;4925;52.588;13.370;2024-01-15T00:53:49;2.10;99.90
9772;DHT22;4925;52.588;13.370;2024-01-15T00:56:15;2.00;99.90
9772;DHT22;4925;52.588;13.370;2024-01-15T00:58:41;2.00;99.90
9772;DHT22;4925;52.588;13.370;2024-01-15T01:01:06;2.00;99.90
9772;DHT22;4925;52.588;13.370;2024-01-15T01:03:32;2.00;99.90
9772;DHT22;4925;52.588;13.370;2024-01-15T01:05:58;1.90;99.90
9772;DHT22;4925;52.588;13.370;2024-01-15T01:08:23;1.90;99.90
9772;DHT22;4925;52.588;13.370;2024-01-15T01:10:49;1.80;99.90
9772;DHT22;4925;52.588;13.370;2024-01-15T01:13:15;1.70;99.90
9772;DHT22;4925;52.588;13.370;2024-01-15T01:15:40;1.60;99.90
9772;DHT22;4925;52.588;13.370;2024-01-15T01:18:09;1.60;99.90
9772;DHT22;4925;52.588;13.370;2024-01-15T01:20:34;1.60;99.90
9772;DHT22;4925;52.588;13.370;2024-01-15T01:23:00;1.50;99.90
9772;DHT22;4925;52.588;13.370;2024-01-15T01:25:27;1.50;99.90
9772;DHT22;4925;52.588;13.370;2024-01-15T01:27:52;1.60;99.90
9772;DHT22;4925;52.588;13.370;2024-01-15T01:30:18;1.60;99.90
9772;DHT22;4925;52.588;13.370;2024-01-15T01:32:43;1.60;99.90
9772;DHT22;4925;52.588;13.370;2024-01-15T01:35:09;1.60;99.90
9772;DHT22;4925;52.588;13.370;2024-01-15T01:37:35;1.60;99.90
9772;DHT22;4925;52.588;13.370;2024-01-15T01:40:00;1.60;99.90
9772;DHT22;4925;52.588;13.370;2024-01-15T01:42:26;1.70;99.90
9772;DHT22;4925;52.588;13.370;2024-01-15T01:44:51;1.70;99.90
9772;DHT22;4925;52.588;13.370;2024-01-15T01:47:17;1.70;99.90
9772;DHT22;4925;52.588;13.370;2024-01-15T01:49:43;1.70;99.90
9772;DHT22;4925;52.588;13.370;2024-01-15T01:52:10;1.80;99.90
9772;DHT22;4925;52.588;13.370;2024-01-15T01:54:37;1.70;99.90
9772;DHT22;4925;52.588;13.370;2024-01-15T01:57:04;1.70;99.90
9772;DHT22;4925;52.588;13.370;2024-01-15T01:59:32;1.70;99.90
9772;DHT22;4925;52.588;13.370;2024-01-15T02:02:00;1.70;99.90
9772;DHT22;4925;52.588;13.370;2024-01-15T02:04:29;1.70;99.90
9772;DHT22;4925;52.588;13.370;2024-01-15T02:06:55;1.70;99.90
9772;DHT22;4925;52.588;13.370;2024-01-15T02:09:21;1.70;99.90
9772;DHT22;4925;52.588;13.370;2024-01-15T02:11:47;1.70;99.90
9772;DHT22;4925;52.588;13.370;2024-01-15T02:14:15;1.70;99.90
9772;DHT22;4925;52.588;13.370;2024-01-15T02:16:41;1.70;99.90
9772;DHT22;4925;52.588;13.370;2024-01-15T02:19:14;1.70;99.90
9772;DHT22;4925;52.588;13.370;2024-01-15T02:21:40;1.70;99.90
9772;DHT22;4925;52.588;13.370;2024-01-15T02:24:11;1.70;99.90
9772;DHT22;4925;52.588;13.370;2024-01-15T02:26:37;1.70;99.90
9772;DHT22;4925;52.588;13.370;2024-01-15T02:29:05;1.70;99.90
9772;DHT22;4925;52.588;13.370;2024-01-15T02:31:32;1.70;99.90
9772;DHT22;4925;52.588;13.370;2024-01-15T02:33:57;1.80;99.90
9772;DHT22;4925;52.588;13.370;2024-01-15T02:36:23;1.80;99.90
9772;DHT22;4925;52.588;13.370;2024-01-15T02:38:49;1.80;99.90
9772;DHT22;4925;52.588;13.370;2024-01-15T02:41:14;1.70;99.90
9772;DHT22;4925;52.588;13.370;2024-01-15T02:43:40;1.80;99.90
9772;DHT22;4925;52.588;13.370;2024-01-15T02:46:06;1.80;99.90
9772;DHT22;4925;52.588;13.370;2024-01-15T02:48:33;1.80;99.90
9772;DHT22;4925;52.588;13.370;2024-01-15T02:51:01;1.80;99.90
9772;DHT22;4925;52.588;13.370;2024-01-15T02:53:27;1.80;99.90
9772;DHT22;4925;52.588;13.370;2024-01-15T02:55:53;1.80;99.90
9772;DHT22;4925;52.588;13.370;2024-01-15T02:58:19;1.80;99.90
9772;DHT22;4925;52.588;13.370;2024-01-15T03:00:44;1.80;99.90
9772;DHT22;4925;52.588;13.370;2024-01-15T03:03:17;1.80;99.90
9772;DHT22;4925;52.588;13.370;2024-01-15T03:05:42;1.80;99.90
9772;DHT22;4925;52.588;13.370;2024-01-15T03:08:08;1.80;99.90
9772;DHT22;4925;52.588;13.370;2024-01-15T03:10:35;1.90;99.90
9772;DHT22;4925;52.588;13.370;2024-01-15T03:13:02;1.90;99.90
9772;DHT22;4925;52.588;13.370;2024-01-15T03:15:28;1.90;99.90
9772;DHT22;4925;52.588;13.370;2024-01-15T03:17:53;1.90;99.90
9772;DHT22;4925;52.588;13.370;2024-01-15T03:20:19;1.90;99.90
9772;DHT22;4925;52.588;13.370;2024-01-15T03:22:46;2.00;99.90
9772;DHT22;4925;52.588;13.370;2024-01-15T03:25:11;1.90;99.90
9772;DHT22;4925;52.588;13.370;2024-01-15T03:27:37;1.90;99.90
9772;DHT22;4925;52.588;13.370;2024-01-15T03:30:03;1.90;99.90
9772;DHT22;4925;52.588;13.370;2024-01-15T03:32:29;1.90;99.90
9772;DHT22;4925;52.588;13.370;2024-01-15T03:34:54;1.90;99.90
9772;DHT22;4925;52.588;13.370;2024-01-15T03:37:20;1.90;99.90
9772;DHT22;4925;52.588;13.370;2024-01-15T03:39:46;1.80;99.90
9772;DHT22;4925;52.588;13.370;2024-01-15T03:42:11;1.80;99.90
9772;DHT22;4925;52.588;13.370;2024-01-15T03:44:41;1.90;99.90
9772;DHT22;4925;52.588;13.370;2024-01-15T03:47:07;1.90;99.90
9772;DHT22;4925;52.588;13.370;2024-01-15T03:49:32;1.90;99.90
9772;DHT22;4925;52.588;13.370;2024-01-15T03:51:58;1.90;99.90
9772;DHT22;4925;52.588;13.370;2024-01-15T03:54:24;1.90;99.90
9772;DHT22;4925;52.588;13.370;2024-01-15T03:56:49;2.00;99.90
9772;DHT22;4925;52.588;13.370;2024-01-15T03:59:15;1.90;99.90
9772;DHT22;4925;52.588;13.370;2024-01-15T04:01:40;2.00;99.90
9772;DHT22;4925;52.588;13.370;2024-01-15T04:04:07;2.00;99.90
9772;DHT22;4925;52.588;13.370;2024-01-15T04:06:33;2.00;99.90
9772;DHT22;4925;52.588;13.370;2024-01-15T04:09:00;2.00;99.90
9772;DHT22;4925;52.588;13.370;2024-01-15T04:11:27;2.00;99.90
9772;DHT22;4925;52.588;13.370;2024-01-15T04:13:52;2.00;99.90
9772;DHT22;4925;52.588;13.370;2024-01-15T04:16:22;2.00;99.90
9772;DHT22;4925;52.588;13.370;2024-01-15T04:18:48;2.00;99.90
9772;DHT22;4925;52.588;13.370;2024-01-15T04:21:14;2.00;99.90
9772;DHT22;4925;52.588;13.370;2024-01-15T04:23:39;2.00;99.90
9772;DHT22;4925;52.588;13.370;2024-01-15T04:26:05;1.90;99.90
9772;DHT22;4925;52.588;13.370;2024-01-15T04:28:30;1.90;99.90
9772;DHT22;4925;52.588;13.370;2024-01-15T04:30:57;2.00;99.90
9772;DHT22;4925;52.588;13.370;2024-01-15T04:33:23;1.90;99.90
9772;DHT22;4925;52.588;13.370;2024-01-15T04:35:49;2.00;99.90
9772;DHT22;4925;52.588;13.370;2024-01-15T04:38:15;2.00;99.90
9772;DHT22;4925;52.588;13.370;2024-01-15T04:40:40;2.00;99.90
9772;DHT22;4925;52.588;13.370;2024-01-15T04:43:06;2.00;99.90
9772;DHT22;4925;52.588;13.370;2024-01-15T04:45:33;2.00;99.90
9772;DHT22;4925;52.588;13.370;2024-01-15T04:47:58;2.00;99.90
9772;DHT22;4925;52.588;13.370;2024-01-15T04:50:25;2.10;99.90
9772;DHT22;4925;52.588;13.370;2024-01-15T04:52:51;2.10;99.90
9772;DHT22;4925;52.588;13.370;2024-01-15T04:55:20;2.10;99.90
9772;DHT22;4925;52.588;13.370;2024-01-15T04:57:46;2.10;99.90
9772;DHT22;4925;52.588;13.370;2024-01-15T05:00:12;2.10;99.90
9772;DHT22;4925;52.588;13.370;2024-01-15T05:02:40;2.10;99.90
9772;DHT22;4925;52.588;13.370;2024-01-15T05:05:07;2.10;99.90
9772;DHT22;4925;52.588;13.370;2024-01-15T05:07:32;2.10;99.90
9772;DHT22;4925;52.588;13.370;2024-01-15T05:09:58;2.10;99.90
9772;DHT22;4925;52.588;13.370;2024-01-15T05:12:23;2.10;99.90
9772;DHT22;4925;52.588;13.370;2024-01-15T05:14:50;2.10;99.90
9772;DHT22;4925;52.588;13.370;2024-01-15T05:17:16;2.10;99.90
9772;DHT22;4925;52.588;13.370;2024-01-15T05:19:42;2.10;99.90
9772;DHT22;4925;52.588;13.370;2024-01-15T05:22:07;2.20;99.90
9772;DHT22;4925;52.588;13.370;2024-01-15T05:24:38;2.10;99.90
9772;DHT22;4925;52.588;13.370;2024-01-15T05:27:03;2.00;99.90
9772;DHT22;4925;52.588;13.370;2024-01-15T05:29:29;2.00;99.90
9772;DHT22;4925;52.588;13.370;2024-01-15T05:31:55;2.00;99.90
9772;DHT22;4925;52.588;13.370;2024-01-15T05:34:20;2.00;99.90
9772;DHT22;4925;52.588;13.370;2024-01-15T05:36:46;2.10;99.90
9772;DHT22;4925;52.588;13.370;2024-01-15T05:39:13;2.10;99.90
9772;DHT22;4925;52.588;13.370;2024-01-15T05:41:40;2.20;99.90
9772;DHT22;4925;52.588;13.370;2024-01-15T05:44:05;2.10;99.90
9772;DHT22;4925;52.588;13.370;2024-01-15T05:46:32;2.20;99.90
9772;DHT22;4925;52.588;13.370;2024-01-15T05:48:57;2.20;99.90
9772;DHT22;4925;52.588;13.370;2024-01-15T05:51:23;2.20;99.90
9772;DHT22;4925;52.588;13.370;2024-01-15T05:53:50;2.20;99.90
9772;DHT22;4925;52.588;13.370;2024-01-15T05:56:15;2.30;99.90
9772;DHT22;4925;52.588;13.370;2024-01-15T05:58:41;2.40;99.90
9772;DHT22;4925;52.588;13.370;2024-01-15T06:01:07;2.30;99.90
9772;DHT22;4925;52.588;13.370;2024-01-15T06:03:34;2.30;99.90
9772;DHT22;4925;52.588;13.370;2024-01-15T06:05:59;2.20;99.90
9772;DHT22;4925;52.588;13.370;2024-01-15T06:08:26;2.30;99.90
9772;DHT22;4925;52.588;13.370;2024-01-15T06:10:53;2.20;99.90
9772;DHT22;4925;52.588;13.370;2024-01-15T06:13:19;2.30;99.90
9772;DHT22;4925;52.588;13.370;2024-01-15T06:15:45;2.20;99.90
9772;DHT22;4925;52.588;13.370;2024-01-15T06:18:11;2.20;99.90
9772;DHT22;4925;52.588;13.370;2024-01-15T06:20:37;2.30;99.90
9772;DHT22;4925;52.588;13.370;2024-01-15T06:23:04;2.20;99.90
9772;DHT22;4925;52.588;13.370;2024-01-15T06:25:31;2.30;99.90
9772;DHT22;4925;52.588;13.370;2024-01-15T06:27:57;2.30;99.90
9772;DHT22;4925;52.588;13.370;2024-01-15T06:30:22;2.30;99.90
9772;DHT22;4925;52.588;13.370;2024-01-15T06:32:48;2.30;99.90
9772;DHT22;4925;52.588;13.370;2024-01-15T06:35:14;2.40;99.90
9772;DHT22;4925;52.588;13.370;2024-01-15T06:37:40;2.40;99.90
9772;DHT22;4925;52.588;13.370;2024-01-15T06:40:06;2.40;99.90
9772;DHT22;4925;52.588;13.370;2024-01-15T06:42:32;2.40;99.90
9772;DHT22;4925;52.588;13.370;2024-01-15T06:44:57;2.30;99.90
9772;DHT22;4925;52.588;13.370;2024-01-15T06:47:23;2.30;99.90
9772;DHT22;4925;52.588;13.370;2024-01-15T06:49:50;2.20;99.90
9772;DHT22;4925;52.588;13.370;2024-01-15T06:52:17;2.30;99.90
9772;DHT22;4925;52.588;13.370;2024-01-15T06:54:42;2.30;99.90
9772;DHT22;4925;52.588;13.370;2024-01-15T06:57:08;2.20;99.90
9772;DHT22;4925;52.588;13.370;2024-01-15T06:59:34;2.30;99.90
9772;DHT22;4925;52.588;13.370;2024-01-15T07:02:01;2.20;99.90
9772;DHT22;4925;52.588;13.370;2024-01-15T07:04:26;2.20;99.90
9772;DHT22;4925;52.588;13.370;2024-01-15T07:06:52;2.30;99.90
9772;DHT22;4925;52.588;13.370;2024-01-15T07:09:18;2.20;99.90
9772;DHT22;4925;52.588;13.370;2024-01-15T07:11:47;2.30;99.90
9772;DHT22;4925;52.588;13.370;2024-01-15T07:14:13;2.10;99.90
9772;DHT22;4925;52.588;13.370;2024-01-15T07:16:38;2.20;99.90
9772;DHT22;4925;52.588;13.370;2024-01-15T07:19:05;2.30;99.90
9772;DHT22;4925;52.588;13.370;2024-01-15T07:21:32;2.30;99.90
9772;DHT22;4925;52.588;13.370;2024-01-15T07:23:57;2.20;99.90
9772;DHT22;4925;52.588;13.370;2024-01-15T07:26:23;2.30;99.90
9772;DHT22;4925;52.588;13.370;2024-01-15T07:28:48;2.20;99.90
9772;DHT22;4925;52.588;13.370;2024-01-15T07:31:16;2.20;99.90
9772;DHT22;4925;52.588;13.370;2024-01-15T07:33:41;2.30;99.90
9772;DHT22;4925;52.588;13.370;2024-01-15T07:36:07;2.30;99.90
9772;DHT22;4925;52.588;13.370;2024-01-15T07:38:33;2.30;99.90
9772;DHT22;4925;52.588;13.370;2024-01-15T07:40:59;2.40;99.90
9772;DHT22;4925;52.588;13.370;2024-01-15T07:43:24;2.40;99.90
9772;DHT22;4925;52.588;13.370;2024-01-15T07:45:50;2.40;99.90
9772;DHT22;4925;52.588;13.370;2024-01-15T07:48:16;2.50;99.90
9772;DHT22;4925;52.588;13.370;2024-01-15T07:50:41;2.60;99.90
9772;DHT22;4925;52.588;13.370;2024-01-15T07:53:08;2.50;99.90
9772;DHT22;4925;52.588;13.370;2024-01-15T07:55:34;2.50;99.90
9772;DHT22;4925;52.588;13.370;2024-01-15T07:58:00;2.50;99.90
9772;DHT22;4925;52.588;13.370;2024-01-15T08:00:26;2.50;99.90
9772;DHT22;4925;52.588;13.370;2024-01-15T08:02:52;2.50;99.90
9772;DHT22;4925;52.588;13.370;2024-01-15T08:05:18;2.50;99.90
9772;DHT22;4925;52.588;13.370;2024-01-15T08:07:44;2.50;99.90
9772;DHT22;4925;52.588;13.370;2024-01-15T08:10:13;2.50;99.90
9772;DHT22;4925;52.588;13.370;2024-01-15T08:12:39;2.50;99.90
9772;DHT22;4925;52.588;13.370;2024-01-15T08:15:05;2.50;99.90
9772;DHT22;4925;52.588;13.370;2024-01-15T08:17:32;2.60;99.90
9772;DHT22;4925;52.588;13.370;2024-01-15T08:19:58;2.60;99.90
9772;DHT22;4925;52.588;13.370;2024-01-15T08:22:24;2.50;99.90
9772;DHT22;4925;52.588;13.370;2024-01-15T08:24:51;2.60;99.90
9772;DHT22;4925;52.588;13.370;2024-01-15T08:27:17;2.60;99.90
9772;DHT22;4925;52.588;13.370;2024-01-15T08:29:43;2.60;99.90
9772;DHT22;4925;52.588;13.370;2024-01-15T08:32:10;2.60;99.90
9772;DHT22;4925;52.588;13.370;2024-01-15T08:34:39;2.50;99.90
9772;DHT22;4925;52.588;13.370;2024-01-15T08:37:05;2.50;99.90
9772;DHT22;4925;52.588;13.370;2024-01-15T08:39:31;2.50;99.90
9772;DHT22;4925;52.588;13.370;2024-01-15T08:41:56;2.50;99.90
9772;DHT22;4925;52.588;13.370;2024-01-15T08:44:24;2.50;99.90
9772;DHT22;4925;52.588;13.370;2024-01-15T08:46:50;2.50;99.90
9772;DHT22;4925;52.588;13.370;2024-01-15T08:49:16;2.50;99.90
9772;DHT22;4925;52.588;13.370;2024-01-15T08:51:42;2.50;99.90
9772;DHT22;4925;52.588;13.370;2024-01-15T08:54:08;2.50;99.90
9772;DHT22;4925;52.588;13.370;2024-01-15T08:56:34;2.50;99.90
9772;DHT22;4925;52.588;13.370;2024-01-15T08:58:59;2.50;99.90
9772;DHT22;4925;52.588;13.370;2024-01-15T09:01:25;2.50;99.90
9772;DHT22;4925;52.588;13.370;2024-01-15T09:03:52;2.50;99.90
9772;DHT22;4925;52.588;13.370;2024-01-15T09:06:19;2.50;99.90
9772;DHT22;4925;52.588;13.370;2024-01-15T09:08:46;2.50;99.90
9772;DHT22;4925;52.588;13.370;2024-01-15T09:11:11;2.50;99.90
9772;DHT22;4925;52.588;13.370;2024-01-15T09:13:38;2.50;99.90
9772;DHT22;4925;52.588;13.370;2024-01-15T09:16:04;2.50;99.90
9772;DHT22;4925;52.588;13.370;2024-01-15T09:18:32;2.50;99.90
9772;DHT22;4925;52.588;13.370;2024-01-15T09:20:57;2.50;99.90
9772;DHT22;4925;52.588;13.370;2024-01-15T09:23:23;2.50;99.90
9772;DHT22;4925;52.588;13.370;2024-01-15T09:25:49;2.50;99.90
9772;DHT22;4925;52.588;13.370;2024-01-15T09:28:15;2.60;99.90
9772;DHT22;4925;52.588;13.370;2024-01-15T09:30:40;2.50;99.90
9772;DHT22;4925;52.588;13.370;2024-01-15T09:33:06;2.60;99.90
9772;DHT22;4925;52.588;13.370;2024-01-15T09:35:31;2.70;99.90
9772;DHT22;4925;52.588;13.370;2024-01-15T09:37:57;2.70;99.90
9772;DHT22;4925;52.588;13.370;2024-01-15T09:40:23;2.80;99.90
9772;DHT22;4925;52.588;13.370;2024-01-15T09:42:50;2.80;99.90
9772;DHT22;4925;52.588;13.370;2024-01-15T09:45:18;2.80;99.90
9772;DHT22;4925;52.588;13.370;2024-01-15T09:47:44;2.80;99.90
9772;DHT22;4925;52.588;13.370;2024-01-15T09:50:10;2.80;99.90
9772;DHT22;4925;52.588;13.370;2024-01-15T09:52:37;2.80;99.90
9772;DHT22;4925;52.588;13.370;2024-01-15T09:55:04;2.80;99.90
9772;DHT22;4925;52.588;13.370;2024-01-15T09:57:33;2.90;99.90
9772;DHT22;4925;52.588;13.370;2024-01-15T10:00:01;2.90;99.90
9772;DHT22;4925;52.588;13.370;2024-01-15T10:02:29;2.90;99.90
9772;DHT22;4925;52.588;13.370;2024-01-15T10:04:56;3.00;99.90
9772;DHT22;4925;52.588;13.370;2024-01-15T10:07:22;2.90;99.90
9772;DHT22;4925;52.588;13.370;2024-01-15T10:09:48;3.00;99.90
9772;DHT22;4925;52.588;13.370;2024-01-15T10:12:17;3.10;99.90
9772;DHT22;4925;52.588;13.370;2024-01-15T10:14:43;3.00;99.90
9772;DHT22;4925;52.588;13.370;2024-01-15T10:17:12;3.10;99.90
9772;DHT22;4925;52.588;13.370;2024-01-15T10:19:41;3.10;99.90
9772;DHT22;4925;52.588;13.370;2024-01-15T10:22:09;3.10;99.90
9772;DHT22;4925;52.588;13.370;2024-01-15T10:24:38;3.10;99.90
9772;DHT22;4925;52.588;13.370;2024-01-15T10:27:10;3.10;99.90
9772;DHT22;4925;52.588;13.370;2024-01-15T10:29:36;3.00;99.90
9772;DHT22;4925;52.588;13.370;2024-01-15T10:32:03;3.00;99.90
9772;DHT22;4925;52.588;13.370;2024-01-15T10:34:31;3.00;99.90
9772;DHT22;4925;52.588;13.370;2024-01-15T10:36:56;3.10;99.90
9772;DHT22;4925;52.588;13.370;2024-01-15T10:39:23;3.10;99.90
9772;DHT22;4925;52.588;13.370;2024-01-15T10:41:49;3.10;99.90
9772;DHT22;4925;52.588;13.370;2024-01-15T10:44:16;3.10;99.90
9772;DHT22;4925;52.588;13.370;2024-01-15T10:46:43;3.10;99.90
9772;DHT22;4925;52.588;13.370;2024-01-15T10:49:09;3.10;99.90
9772;DHT22;4925;52.588;13.370;2024-01-15T10:51:36;3.20;99.90
9772;DHT22;4925;52.588;13.370;2024-01-15T10:54:02;3.10;99.90
9772;DHT22;4925;52.588;13.370;2024-01-15T10:56:30;3.20;99.90
9772;DHT22;4925;52.588;13.370;2024-01-15T10:58:57;3.10;99.90
9772;DHT22;4925;52.588;13.370;2024-01-15T11:01:23;3.10;99.90
9772;DHT22;4925;52.588;13.370;2024-01-15T11:03:49;3.20;99.90
9772;DHT22;4925;52.588;13.370;2024-01-15T11:06:19;3.20;99.90
9772;DHT22;4925;52.588;13.370;2024-01-15T11:08:52;3.20;99.90
9772;DHT22;4925;52.588;13.370;2024-01-15T11:11:18;3.20;99.90
9772;DHT22;4925;52.588;13.370;2024-01-15T11:13:48;3.30;99.90
9772;DHT22;4925;52.588;13.370;2024-01-15T11:16:17;3.10;99.90
9772;DHT22;4925;52.588;13.370;2024-01-15T11:21:24;3.20;99.90
9772;DHT22;4925;52.588;13.370;2024-01-15T11:23:59;3.20;99.90
9772;DHT22;4925;52.588;13.370;2024-01-15T11:29:05;3.30;99.90
9772;DHT22;4925;52.588;13.370;2024-01-15T11:34:21;3.30;99.90
9772;DHT22;4925;52.588;13.370;2024-01-15T11:37:07;3.20;99.90
9772;DHT22;4925;52.588;13.370;2024-01-15T11:42:00;3.20;99.90
9772;DHT22;4925;52.588;13.370;2024-01-15T11:44:26;3.10;99.90
9772;DHT22;4925;52.588;13.370;2024-01-15T11:47:02;3.00;99.90
9772;DHT22;4925;52.588;13.370;2024-01-15T11:50:01;3.00;99.90
9772;DHT22;4925;52.588;13.370;2024-01-15T11:52:38;2.90;99.90
9772;DHT22;4925;52.588;13.370;2024-01-15T11:57:55;2.80;99.90
9772;DHT22;4925;52.588;13.370;2024-01-15T12:00:22;2.70;99.90
9772;DHT22;4925;52.588;13.370;2024-01-15T12:02:48;2.60;99.90
9772;DHT22;4925;52.588;13.370;2024-01-15T12:05:16;2.50;99.90
9772;DHT22;4925;52.588;13.370;2024-01-15T12:07:43;2.50;99.90
9772;DHT22;4925;52.588;13.370;2024-01-15T12:10:12;2.50;99.90
9772;DHT22;4925;52.588;13.370;2024-01-15T12:12:58;2.50;99.90
9772;DHT22;4925;52.588;13.370;2024-01-15T12:15:30;2.50;99.90
9772;DHT22;4925;52.588;13.370;2024-01-15T12:17:59;2.50;99.90
9772;DHT22;4925;52.588;13.370;2024-01-15T12:20:31;2.50;99.90
9772;DHT22;4925;52.588;13.370;2024-01-15T12:22:57;2.50;99.90
9772;DHT22;4925;52.588;13.370;2024-01-15T12:25:23;2.50;99.90
9772;DHT22;4925;52.588;13.370;2024-01-15T12:27:51;2.50;99.90
9772;DHT22;4925;52.588;13.370;2024-01-15T12:30:17;2.60;99.90
9772;DHT22;4925;52.588;13.370;2024-01-15T12:32:44;2.60;99.90
9772;DHT22;4925;52.588;13.370;2024-01-15T12:35:10;2.50;99.90
9772;DHT22;4925;52.588;13.370;2024-01-15T12:37:37;2.50;99.90
9772;DHT22;4925;52.588;13.370;2024-01-15T12:40:04;2.50;99.90
9772;DHT22;4925;52.588;13.370;2024-01-15T12:42:33;2.40;99.90
9772;DHT22;4925;52.588;13.370;2024-01-15T12:45:01;2.40;99.90
9772;DHT22;4925;52.588;13.370;2024-01-15T12:47:27;2.30;99.90
9772;DHT22;4925;52.588;13.370;2024-01-15T12:49:52;2.30;99.90
9772;DHT22;4925;52.588;13.370;2024-01-15T12:52:21;2.30;99.90
9772;DHT22;4925;52.588;13.370;2024-01-15T12:54:48;2.30;99.90
9772;DHT22;4925;52.588;13.370;2024-01-15T12:57:14;2.20;99.90
9772;DHT22;4925;52.588;13.370;2024-01-15T12:59:40;2.10;99.90
9772;DHT22;4925;52.588;13.370;2024-01-15T13:02:06;2.10;99.90
9772;DHT22;4925;52.588;13.370;2024-01-15T13:04:32;2.10;99.90
9772;DHT22;4925;52.588;13.370;2024-01-15T13:06:58;2.20;99.90
9772;DHT22;4925;52.588;13.370;2024-01-15T13:09:24;2.20;99.90
9772;DHT22;4925;52.588;13.370;2024-01-15T13:11:49;2.30;99.90
9772;DHT22;4925;52.588;13.370;2024-01-15T13:14:15;2.40;99.90
9772;DHT22;4925;52.588;13.370;2024-01-15T13:16:41;2.30;99.90
9772;DHT22;4925;52.588;13.370;2024-01-15T13:19:10;2.30;99.90
9772;DHT22;4925;52.588;13.370;2024-01-15T13:21:40;2.30;99.90
9772;DHT22;4925;52.588;13.370;2024-01-15T13:24:06;2.30;99.90
9772;DHT22;4925;52.588;13.370;2024-01-15T13:26:33;2.30;99.90
9772;DHT22;4925;52.588;13.370;2024-01-15T13:29:03;2.30;99.90
9772;DHT22;4925;52.588;13.370;2024-01-15T13:31:30;2.40;99.90
9772;DHT22;4925;52.588;13.370;2024-01-15T13:33:55;2.40;99.90
9772;DHT22;4925;52.588;13.370;2024-01-15T13:36:22;2.40;99.90
9772;DHT22;4925;52.588;13.370;2024-01-15T13:38:54;2.40;99.90
9772;DHT22;4925;52.588;13.370;2024-01-15T13:41:20;2.40;99.90
9772;DHT22;4925;52.588;13.370;2024-01-15T13:43:55;2.50;99.90
9772;DHT22;4925;52.588;13.370;2024-01-15T13:46:24;2.50;99.90
9772;DHT22;4925;52.588;13.370;2024-01-15T13:48:52;2.50;99.90
9772;DHT22;4925;52.588;13.370;2024-01-15T13:51:17;2.50;99.90
9772;DHT22;4925;52.588;13.370;2024-01-15T13:53:43;2.40;99.90
9772;DHT22;4925;52.588;13.370;2024-01-15T13:56:09;2.50;99.90
9772;DHT22;4925;52.588;13.370;2024-01-15T13:58:38;2.50;99.90
9772;DHT22;4925;52.588;13.370;2024-01-15T14:01:04;2.50;99.90
9772;DHT22;4925;52.588;13.370;2024-01-15T14:03:31;2.60;99.90
9772;DHT22;4925;52.588;13.370;2024-01-15T14:05:57;2.70;99.90
9772;DHT22;4925;52.588;13.370;2024-01-15T14:08:23;2.70;99.90
9772;DHT22;4925;52.588;13.370;2024-01-15T14:10:49;2.60;99.90
9772;DHT22;4925;52.588;13.370;2024-01-15T14:13:15;2.60;99.90
9772;DHT22;4925;52.588;13.370;2024-01-15T14:15:40;2.60;99.90
9772;DHT22;4925;52.588;13.370;2024-01-15T14:18:06;2.60;99.90
9772;DHT22;4925;52.588;13.370;2024-01-15T14:20:32;2.50;99.90
9772;DHT22;4925;52.588;13.370;2024-01-15T14:22:58;2.60;99.90
9772;DHT22;4925;52.588;13.370;2024-01-15T14:25:24;2.60;99.90
9772;DHT22;4925;52.588;13.370;2024-01-15T14:27:50;2.60;99.90
9772;DHT22;4925;52.588;13.370;2024-01-15T14:30:15;2.60;99.90
9772;DHT22;4925;52.588;13.370;2024-01-15T14:32:42;2.60;99.90
9772;DHT22;4925;52.588;13.370;2024-01-15T14:35:08;2.70;99.90
9772;DHT22;4925;52.588;13.370;2024-01-15T14:37:38;2.70;99.90
9772;DHT22;4925;52.588;13.370;2024-01-15T14:40:24;2.70;99.90
9772;DHT22;4925;52.588;13.370;2024-01-15T14:42:53;2.80;99.90
9772;DHT22;4925;52.588;13.370;2024-01-15T14:45:19;2.80;99.90
9772;DHT22;4925;52.588;13.370;2024-01-15T14:47:45;2.70;99.90
9772;DHT22;4925;52.588;13.370;2024-01-15T14:50:11;2.70;99.90
9772;DHT22;4925;52.588;13.370;2024-01-15T14:52:38;2.70;99.90
9772;DHT22;4925;52.588;13.370;2024-01-15T14:55:04;2.70;99.90
9772;DHT22;4925;52.588;13.370;2024-01-15T14:57:30;2.60;99.90
9772;DHT22;4925;52.588;13.370;2024-01-15T14:59:56;2.70;99.90
9772;DHT22;4925;52.588;13.370;2024-01-15T15:02:24;2.60;99.90
9772;DHT22;4925;52.588;13.370;2024-01-15T15:04:54;2.50;99.90
9772;DHT22;4925;52.588;13.370;2024-01-15T15:07:21;2.40;99.90
9772;DHT22;4925;52.588;13.370;2024-01-15T15:09:48;2.40;99.90
9772;DHT22;4925;52.588;13.370;2024-01-15T15:12:16;2.40;99.90
9772;DHT22;4925;52.588;13.370;2024-01-15T15:14:42;2.50;99.90
9772;DHT22;4925;52.588;13.370;2024-01-15T15:17:08;2.40;99.90
9772;DHT22;4925;52.588;13.370;2024-01-15T15:19:35;2.40;99.90
9772;DHT22;4925;52.588;13.370;2024-01-15T15:22:01;2.40;99.90
9772;DHT22;4925;52.588;13.370;2024-01-15T15:24:27;2.40;99.90
9772;DHT22;4925;52.588;13.370;2024-01-15T15:26:53;2.50;99.90
9772;DHT22;4925;52.588;13.370;2024-01-15T15:29:19;2.40;99.90
9772;DHT22;4925;52.588;13.370;2024-01-15T15:31:45;2.40;99.90
9772;DHT22;4925;52.588;13.370;2024-01-15T15:34:11;2.40;99.90
9772;DHT22;4925;52.588;13.370;2024-01-15T15:36:36;2.40;99.90
9772;DHT22;4925;52.588;13.370;2024-01-15T15:39:02;2.30;99.90
9772;DHT22;4925;52.588;13.370;2024-01-15T15:41:29;2.30;99.90
9772;DHT22;4925;52.588;13.370;2024-01-15T15:43:55;2.30;99.90
9772;DHT22;4925;52.588;13.370;2024-01-15T15:46:20;2.30;99.90
9772;DHT22;4925;52.588;13.370;2024-01-15T15:48:48;2.30;99.90
9772;DHT22;4925;52.588;13.370;2024-01-15T15:51:15;2.20;99.90
9772;DHT22;4925;52.588;13.370;2024-01-15T15:53:43;2.20;99.90
9772;DHT22;4925;52.588;13.370;2024-01-15T15:56:09;2.10;99.90
9772;DHT22;4925;52.588;13.370;2024-01-15T15:58:35;2.10;99.90
9772;DHT22;4925;52.588;13.370;2024-01-15T16:01:02;2.10;99.90
9772;DHT22;4925;52.588;13.370;2024-01-15T16:03:28;2.10;99.90
9772;DHT22;4925;52.588;13.370;2024-01-15T16:05:58;2.10;99.90
9772;DHT22;4925;52.588;13.370;2024-01-15T16:08:26;2.00;99.90
9772;DHT22;4925;52.588;13.370;2024-01-15T16:10:52;2.00;99.90